PDT,Max TemperatureF,Mean TemperatureF,Min TemperatureF,Max Dew PointF,MeanDew PointF,Min DewpointF,Max Humidity, Mean Humidity, Min Humidity, Max Sea Level PressureIn, Mean Sea Level PressureIn, Min Sea Level PressureIn, Max VisibilityMiles, Mean VisibilityMiles, Min VisibilityMiles, Max Wind SpeedMPH, Mean Wind SpeedMPH, Max Gust SpeedMPH,PrecipitationIn, CloudCover, Events, WindDirDegrees
2013-6-1,84,68,52,38,35,26,51,31,17,30.16,30.06,29.94,10,10,10,13,6,23,0.00,0,,348
2013-6-2,80,67,54,45,41,33,61,42,21,29.96,29.90,29.84,10,10,10,13,7,24,0.00,0,,332
2013-6-3,84,66,48,46,42,35,80,43,23,29.98,29.94,29.89,10,10,10,10,4,18,0.00,0,,320
2013-6-4,89,70,51,47,42,34,66,37,18,29.99,29.96,29.92,10,10,10,10,3,17,0.00,0,,25
2013-6-5,93,73,52,50,43,40,68,37,18,30.03,29.99,29.93,10,10,9,9,4,14,0.00,0,,5
2013-6-6,94,73,52,52,47,42,71,40,20,30.00,29.96,29.90,10,10,10,9,3,16,0.00,0,,38
2013-6-7,90,74,58,52,49,45,72,41,22,30.08,30.01,29.96,10,9,2,13,5,24,0.00,0,,337
2013-6-8,92,77,61,51,46,39,56,36,17,30.03,29.97,29.91,10,10,10,12,5,21,0.00,0,,3
2013-6-9,92,77,61,54,48,39,67,39,23,29.95,29.86,29.76,10,10,10,12,4,36,0.00,0,,342
2013-6-10,78,66,53,55,51,47,83,68,46,29.99,29.88,29.81,10,10,10,9,2,24,0.00,3,,-1
2013-6-11,77,64,51,49,44,35,89,56,33,30.05,29.98,29.93,10,10,10,12,2,21,0.00,3,,310
2013-6-12,72,58,44,37,34,29,65,44,24,30.10,30.05,30.01,10,10,10,15,5,29,0.00,0,,324
2013-6-13,70,57,43,37,34,31,76,47,26,30.24,30.18,30.11,10,10,10,15,6,28,0.00,0,,326
2013-6-14,76,58,40,39,36,33,73,45,23,30.23,30.10,29.96,10,10,10,9,3,17,0.00,0,,343
2013-6-15,84,64,44,42,36,30,60,39,15,30.00,29.95,29.91,10,10,10,7,2,16,0.00,0,,53
2013-6-16,83,65,47,46,40,33,76,43,19,30.09,30.05,30.01,10,10,10,8,1,18,0.00,0,,55
2013-6-17,80,62,44,45,41,37,76,46,27,30.09,30.03,29.95,10,10,10,7,2,20,0.00,1,,60
2013-6-18,70,59,47,44,41,36,77,59,37,29.98,29.95,29.90,10,10,10,10,2,21,T,4,Rain,-1
2013-6-19,68,55,42,38,36,34,76,53,34,30.12,30.05,29.99,10,10,10,10,4,20,0.00,3,,343
2013-6-20,71,54,37,40,37,34,85,54,30,30.12,30.07,30.01,10,10,10,10,4,22,0.00,2,,343
2013-6-21,74,57,40,40,35,26,79,44,17,30.13,30.10,30.05,10,10,10,10,4,22,0.00,0,,10
2013-6-22,82,65,47,43,38,34,61,38,20,30.09,30.00,29.89,10,10,10,9,3,18,0.00,0,,4
2013-6-23,69,63,56,50,46,41,77,58,45,29.87,29.81,29.75,10,10,10,8,1,20,0.00,6,,-1
2013-6-24,57,54,50,52,47,45,93,83,77,29.92,29.85,29.73,10,9,3,9,2,17,0.14,8,Rain,110
2013-6-25,62,56,50,56,51,46,96,88,75,29.99,29.90,29.84,10,7,3,8,1,20,0.31,8,Rain,-1
2013-6-26,68,62,56,57,55,52,93,85,63,30.15,30.04,29.96,10,8,3,8,1,18,0.22,7,Rain,90
2013-6-27,85,69,53,57,54,50,93,63,31,30.21,30.17,30.14,10,10,10,8,1,20,0.00,0,,90
2013-6-28,94,73,52,59,54,50,93,54,26,30.20,30.12,30.02,10,10,10,10,3,18,0.00,0,,16
2013-6-29,93,78,62,59,54,47,72,45,29,30.09,30.03,29.95,10,10,10,8,3,20,0.00,0,,30
2013-6-30,99,78,57,56,49,38,72,43,12,30.01,29.94,29.86,10,10,10,7,1,12,0.00,0,,62